createdAt,value
2018-12-22T00:02:09.662Z,26.10
2018-12-22T00:04:43.075Z,26.17
2018-12-22T00:07:17.046Z,25.07
2018-12-22T00:09:53.571Z,24.03
2018-12-22T00:12:30.356Z,24.00
2018-12-22T00:15:08.546Z,22.67
2018-12-22T00:17:41.622Z,21.43
2018-12-22T00:20:15.256Z,22.97
2018-12-22T00:22:48.819Z,23.37
2018-12-22T00:25:25.071Z,21.67
2018-12-22T00:27:57.255Z,22.17
2018-12-22T00:30:33.508Z,21.63
2018-12-22T00:33:06.467Z,21.53
2018-12-22T00:35:42.711Z,20.90
2018-12-22T00:38:16.430Z,21.13
2018-12-22T00:40:49.620Z,20.97
2018-12-22T00:43:26.805Z,21.03
2018-12-22T00:46:03.063Z,20.03
2018-12-22T00:48:39.714Z,21.63
2018-12-22T00:51:16.151Z,22.47
2018-12-22T00:53:48.409Z,21.40
2018-12-22T00:56:25.184Z,22.63
2018-12-22T00:59:02.210Z,23.70
2018-12-22T01:01:38.979Z,22.13
2018-12-22T01:04:17.743Z,23.83
2018-12-22T01:06:55.285Z,22.83
2018-12-22T01:09:29.032Z,21.83
2018-12-22T01:12:01.274Z,23.30
2018-12-22T01:14:38.386Z,23.43
2018-12-22T01:17:15.771Z,24.17
2018-12-22T01:19:52.652Z,22.07
2018-12-22T01:22:25.435Z,21.37
2018-12-22T01:25:04.084Z,21.83
2018-12-22T01:27:41.172Z,22.23
2018-12-22T01:30:18.358Z,21.73
2018-12-22T01:32:52.659Z,20.40
2018-12-22T01:35:26.198Z,22.23
2018-12-22T01:38:03.050Z,22.70
2018-12-22T01:40:40.132Z,23.20
2018-12-22T01:43:14.233Z,24.90
2018-12-22T01:45:47.048Z,22.43
2018-12-22T01:48:19.671Z,22.50
2018-12-22T01:50:52.633Z,23.33
2018-12-22T01:53:25.758Z,22.17
2018-12-22T01:56:01.857Z,20.97
2018-12-22T01:58:34.704Z,20.87
2018-12-22T02:01:07.756Z,19.63
2018-12-22T02:03:44.968Z,20.13
2018-12-22T02:06:23.697Z,21.47
2018-12-22T02:08:56.253Z,21.57
2018-12-22T02:11:30.258Z,20.13
2018-12-22T02:14:02.584Z,20.23
2018-12-22T02:16:35.518Z,20.50
2018-12-22T02:19:12.073Z,24.83
2018-12-22T02:21:50.208Z,23.30
2018-12-22T02:24:23.482Z,22.43
2018-12-22T02:26:56.226Z,23.27
2018-12-22T02:29:33.222Z,22.10
2018-12-22T02:32:06.764Z,20.37
2018-12-22T02:34:39.139Z,20.93
2018-12-22T02:37:16.428Z,21.47
2018-12-22T02:39:49.292Z,20.57
2018-12-22T02:42:22.682Z,21.30
2018-12-22T02:44:55.549Z,22.43
2018-12-22T02:47:28.628Z,21.03
2018-12-22T02:50:00.007Z,21.77
2018-12-22T02:52:32.830Z,21.67
2018-12-22T02:55:06.590Z,21.30
2018-12-22T02:57:39.664Z,22.67
2018-12-22T03:00:12.873Z,23.47
2018-12-22T03:02:47.056Z,24.23
2018-12-22T03:05:19.937Z,24.03
2018-12-22T03:07:54.416Z,23.60
2018-12-22T03:10:27.301Z,23.10
2018-12-22T03:13:00.545Z,21.87
2018-12-22T03:15:34.652Z,21.33
2018-12-22T03:18:07.346Z,21.77
2018-12-22T03:20:39.679Z,21.23
2018-12-22T03:23:12.205Z,20.83
2018-12-22T03:25:45.043Z,22.33
2018-12-22T03:28:23.541Z,22.63
2018-12-22T03:30:57.269Z,22.53
2018-12-22T03:33:30.577Z,22.67
2018-12-22T03:36:03.381Z,21.87
2018-12-22T03:38:36.269Z,21.37
2018-12-22T03:41:11.382Z,20.80
2018-12-22T03:43:45.476Z,20.33
2018-12-22T03:46:18.852Z,20.83
2018-12-22T03:48:51.899Z,20.53
2018-12-22T03:51:28.445Z,20.77
2018-12-22T03:54:01.470Z,19.70
2018-12-22T03:56:34.703Z,21.30
2018-12-22T03:59:12.995Z,19.77
2018-12-22T04:01:43.720Z,20.80
2018-12-22T04:04:16.860Z,20.73
2018-12-22T04:06:49.807Z,21.00
2018-12-22T04:09:23.099Z,20.87
2018-12-22T04:12:00.613Z,20.27
2018-12-22T04:14:33.461Z,20.27
2018-12-22T04:17:06.578Z,19.73
2018-12-22T04:19:40.124Z,21.23
2018-12-22T04:22:12.697Z,18.53
2018-12-22T04:24:48.984Z,19.80
2018-12-22T04:27:22.357Z,19.03
2018-12-22T04:29:55.552Z,18.73
2018-12-22T04:32:28.992Z,17.60
2018-12-22T04:35:01.357Z,19.63
2018-12-22T04:37:33.965Z,19.97
2018-12-22T04:40:10.714Z,18.47
2018-12-22T04:42:41.902Z,18.80
2018-12-22T04:45:15.925Z,19.53
2018-12-22T04:47:54.442Z,17.27
2018-12-22T04:50:28.732Z,17.93
2018-12-22T04:53:06.319Z,17.63
2018-12-22T04:55:41.001Z,16.63
2018-12-22T04:58:15.012Z,17.77
2018-12-22T05:00:48.420Z,16.83
2018-12-22T05:03:21.383Z,18.03
2018-12-22T05:05:53.636Z,16.53
2018-12-22T05:08:26.624Z,16.53
2018-12-22T05:11:05.168Z,16.97
2018-12-22T05:13:37.727Z,17.27
2018-12-22T05:16:14.908Z,17.83
2018-12-22T05:18:48.305Z,16.63
2018-12-22T05:21:21.036Z,15.50
2018-12-22T05:23:58.332Z,18.03
2018-12-22T05:26:34.968Z,17.17
2018-12-22T05:29:11.547Z,18.10
2018-12-22T05:31:44.131Z,18.73
2018-12-22T05:34:17.545Z,18.03
2018-12-22T05:36:54.190Z,17.93
2018-12-22T05:39:27.506Z,17.13
2018-12-22T05:42:00.327Z,17.10
2018-12-22T05:44:37.136Z,16.93
2018-12-22T05:47:14.409Z,15.77
2018-12-22T05:49:47.890Z,16.20
2018-12-22T05:52:24.916Z,16.93
2018-12-22T05:55:02.072Z,15.77
2018-12-22T05:57:40.846Z,16.37
2018-12-22T06:00:17.467Z,16.00
2018-12-22T06:02:50.634Z,15.77
2018-12-22T06:05:23.745Z,21.20
2018-12-22T06:08:00.067Z,21.53
2018-12-22T06:10:33.262Z,19.87
2018-12-22T06:13:06.425Z,17.70
2018-12-22T06:15:39.813Z,17.30
2018-12-22T06:18:12.475Z,16.80
2018-12-22T06:20:47.242Z,16.77
2018-12-22T06:23:19.872Z,18.67
2018-12-22T06:25:53.854Z,19.50
2018-12-22T06:28:27.273Z,18.60
2018-12-22T06:31:00.087Z,18.93
2018-12-22T06:33:33.159Z,18.87
2018-12-22T06:36:10.223Z,18.70
2018-12-22T06:38:42.361Z,18.50
2018-12-22T06:41:18.767Z,17.33
2018-12-22T06:43:55.945Z,19.37
2018-12-22T06:46:32.962Z,17.50
2018-12-22T06:49:09.010Z,24.77
2018-12-22T06:51:41.189Z,22.13
2018-12-22T06:54:14.262Z,23.13
2018-12-22T06:56:47.485Z,21.57
2018-12-22T06:59:23.875Z,21.37
2018-12-22T07:01:57.259Z,21.43
2018-12-22T07:04:30.029Z,24.17
2018-12-22T07:07:02.809Z,21.87
2018-12-22T07:09:35.372Z,23.43
2018-12-22T07:12:08.142Z,23.77
2018-12-22T07:14:45.782Z,25.07
2018-12-22T07:17:18.524Z,24.40
2018-12-22T07:19:51.055Z,28.33
2018-12-22T07:22:24.221Z,31.20
2018-12-22T07:24:57.205Z,29.27
2018-12-22T07:27:33.609Z,28.67
2018-12-22T07:30:08.975Z,27.87
2018-12-22T07:32:41.951Z,26.90
2018-12-22T07:35:18.206Z,28.63
2018-12-22T07:37:53.166Z,27.37
2018-12-22T07:40:29.605Z,26.83
2018-12-22T07:43:06.660Z,29.47
2018-12-22T07:45:44.086Z,32.33
2018-12-22T07:48:16.975Z,32.20
2018-12-22T07:50:50.154Z,28.43
2018-12-22T07:53:21.638Z,26.50
2018-12-22T07:55:55.088Z,26.60
2018-12-22T07:58:28.635Z,26.63
2018-12-22T08:01:05.116Z,29.73
2018-12-22T08:03:35.993Z,28.37
2018-12-22T08:06:08.992Z,28.57
2018-12-22T08:08:40.550Z,28.43
2018-12-22T08:31:23.560Z,23.47
2018-12-22T08:33:56.648Z,23.60
2018-12-22T08:36:31.429Z,26.87
2018-12-22T08:39:08.995Z,25.20
2018-12-22T08:41:43.013Z,23.70
2018-12-22T08:44:16.472Z,23.00
2018-12-22T08:46:53.551Z,21.80
2018-12-22T08:49:27.257Z,23.90
2018-12-22T08:51:58.751Z,21.60
2018-12-22T08:54:32.791Z,21.17
2018-12-22T08:57:09.834Z,22.50
2018-12-22T08:59:46.879Z,19.50
2018-12-22T09:02:20.056Z,21.00
2018-12-22T09:04:53.352Z,22.03
2018-12-22T09:07:26.173Z,23.87
2018-12-22T09:09:58.728Z,22.80
2018-12-22T09:12:31.722Z,22.43
2018-12-22T09:15:05.051Z,22.60
2018-12-22T09:17:42.330Z,24.33
2018-12-22T09:20:20.822Z,22.47
2018-12-22T09:22:53.156Z,23.13
2018-12-22T09:25:26.145Z,24.33
2018-12-22T09:27:59.113Z,26.53
2018-12-22T09:43:08.928Z,24.67
2018-12-22T09:45:42.890Z,26.73
2018-12-22T09:48:19.449Z,30.50
2018-12-22T09:50:53.476Z,29.27
2018-12-22T09:53:24.297Z,27.23
2018-12-22T09:56:00.917Z,24.63
2018-12-22T09:58:34.328Z,24.60
2018-12-22T10:01:09.467Z,23.27
2018-12-22T10:03:42.139Z,22.73
2018-12-22T10:06:14.628Z,21.90
2018-12-22T10:08:45.692Z,22.77
2018-12-22T10:11:19.487Z,22.13
2018-12-22T10:13:52.036Z,20.73
2018-12-22T10:16:28.387Z,21.07
2018-12-22T10:18:58.600Z,19.87
2018-12-22T10:21:31.721Z,18.13
2018-12-22T10:24:08.006Z,14.87
2018-12-22T10:26:41.301Z,15.87
2018-12-22T10:29:12.238Z,16.07
2018-12-22T10:31:43.201Z,14.33
2018-12-22T10:34:16.390Z,14.83
2018-12-22T10:36:48.761Z,15.97
2018-12-22T10:39:22.035Z,16.97
2018-12-22T10:41:53.137Z,14.20
2018-12-22T10:44:30.294Z,12.80
2018-12-22T10:47:03.390Z,13.83
2018-12-22T10:49:39.891Z,14.20
2018-12-22T10:52:12.854Z,14.67
2018-12-22T10:54:45.711Z,14.40
2018-12-22T10:57:18.855Z,15.30
2018-12-22T10:59:51.122Z,15.23
2018-12-22T11:02:23.809Z,15.53
2018-12-22T11:04:56.542Z,16.73
2018-12-22T11:07:28.687Z,16.47
2018-12-22T11:10:01.642Z,16.33
2018-12-22T11:12:38.034Z,16.17
2018-12-22T11:15:15.339Z,16.10
2018-12-22T11:17:51.954Z,15.77
2018-12-22T11:20:22.479Z,14.50
2018-12-22T11:22:55.648Z,14.40
2018-12-22T11:25:29.199Z,15.70
2018-12-22T11:28:02.715Z,15.93
2018-12-22T11:30:41.976Z,16.53
2018-12-22T11:33:14.676Z,15.87
2018-12-22T11:35:52.516Z,14.53
2018-12-22T11:38:25.351Z,17.07
2018-12-22T11:40:58.428Z,15.47
2018-12-22T11:43:37.006Z,15.67
2018-12-22T11:49:49.336Z,14.87
2018-12-22T11:52:20.309Z,15.50
2018-12-22T11:54:53.997Z,16.17
2018-12-22T11:57:27.055Z,16.17
2018-12-22T12:00:00.360Z,17.47
2018-12-22T12:02:33.620Z,16.87
2018-12-22T12:05:11.792Z,17.70
2018-12-22T12:07:44.431Z,18.07
2018-12-22T12:10:17.581Z,16.73
2018-12-22T12:12:54.965Z,18.10
2018-12-22T12:15:45.220Z,17.00
2018-12-22T12:19:32.366Z,16.60
2018-12-22T12:22:05.072Z,15.90
2018-12-22T12:24:42.760Z,14.47
2018-12-22T12:27:20.163Z,14.27
2018-12-22T12:29:53.174Z,15.43
2018-12-22T12:32:29.979Z,16.20
2018-12-22T12:35:09.815Z,14.10
2018-12-22T12:37:43.630Z,14.13
2018-12-22T12:40:16.069Z,14.47
2018-12-22T12:42:47.438Z,14.10
2018-12-22T12:45:20.613Z,13.50
2018-12-22T12:47:53.611Z,12.87
2018-12-22T12:50:26.423Z,11.40
2018-12-22T12:52:59.493Z,11.30
2018-12-22T12:55:36.054Z,11.77
2018-12-22T12:58:09.409Z,12.03
2018-12-22T13:00:42.757Z,11.57
2018-12-22T13:03:15.919Z,10.53
2018-12-22T13:05:48.413Z,13.70
2018-12-22T13:08:22.558Z,14.27
2018-12-22T13:10:55.475Z,14.37
2018-12-22T13:13:52.644Z,13.63
2018-12-22T13:16:26.295Z,13.10
2018-12-22T13:18:57.446Z,13.60
2018-12-22T13:21:30.278Z,14.60
2018-12-22T13:24:03.470Z,13.67
2018-12-22T13:26:37.195Z,13.83
2018-12-22T13:29:10.801Z,13.80
2018-12-22T13:31:44.781Z,14.67
2018-12-22T13:34:18.487Z,14.10
2018-12-22T13:36:49.481Z,14.30
2018-12-22T13:39:26.635Z,14.60
2018-12-22T13:42:02.376Z,14.20
2018-12-22T13:44:36.126Z,12.43
2018-12-22T13:47:09.250Z,12.80
2018-12-22T13:49:41.960Z,13.93
2018-12-22T13:52:14.155Z,13.37
2018-12-22T13:54:47.446Z,13.03
2018-12-22T13:57:24.022Z,13.43
2018-12-22T13:59:59.431Z,13.17
2018-12-22T14:02:36.499Z,13.10
2018-12-22T14:05:19.054Z,12.67
2018-12-22T14:07:56.679Z,12.60
2018-12-22T14:10:34.089Z,11.00
2018-12-22T14:13:06.801Z,10.30
2018-12-22T14:15:52.609Z,9.37
2018-12-22T14:18:54.776Z,8.67
2018-12-22T14:21:26.483Z,8.47
2018-12-22T14:24:18.037Z,9.37
2018-12-22T14:26:51.300Z,9.50
2018-12-22T14:29:24.006Z,11.93
2018-12-22T14:32:00.875Z,10.47
2018-12-22T14:36:44.430Z,11.07
2018-12-22T14:39:17.571Z,12.87
2018-12-22T14:41:50.681Z,13.27
2018-12-22T14:44:24.485Z,13.77
2018-12-22T14:46:54.800Z,13.70
2018-12-22T14:49:27.441Z,13.07
2018-12-22T14:52:00.546Z,13.53
2018-12-22T14:54:37.396Z,14.40
2018-12-22T14:57:11.963Z,19.60
2018-12-22T14:59:45.783Z,17.00
2018-12-22T15:02:18.738Z,16.53
2018-12-22T15:04:51.454Z,15.43
2018-12-22T15:07:23.506Z,17.27
2018-12-22T15:09:57.936Z,16.00
2018-12-22T15:12:28.955Z,16.40
2018-12-22T15:15:01.941Z,17.50
2018-12-22T15:17:35.095Z,15.47
2018-12-22T15:20:13.395Z,16.33
2018-12-22T15:22:46.349Z,15.17
2018-12-22T15:25:19.850Z,15.27
2018-12-22T15:27:52.835Z,13.90
2018-12-22T15:30:25.775Z,16.20
2018-12-22T15:33:02.086Z,14.93
2018-12-22T15:35:34.376Z,17.57
2018-12-22T15:38:08.718Z,17.90
2018-12-22T15:40:43.355Z,17.70
2018-12-22T15:43:16.941Z,17.43
2018-12-22T15:45:49.449Z,17.87
2018-12-22T15:48:22.544Z,17.30
2018-12-22T15:50:55.732Z,18.87
2018-12-22T15:53:30.780Z,18.40
2018-12-22T15:56:03.881Z,17.30
2018-12-22T15:58:36.572Z,19.40
2018-12-22T16:01:07.645Z,21.67
2018-12-22T16:03:45.780Z,22.03
2018-12-22T16:06:27.312Z,24.10
2018-12-22T16:09:06.612Z,24.70
2018-12-22T16:11:39.426Z,24.93
2018-12-22T16:14:12.531Z,23.67
2018-12-22T16:16:54.531Z,23.40
2018-12-22T16:19:28.067Z,23.40
2018-12-22T16:22:00.979Z,22.83
2018-12-22T16:24:37.406Z,21.33
2018-12-22T16:27:10.873Z,20.17
2018-12-22T16:29:45.639Z,19.67
2018-12-22T16:32:19.587Z,19.37
2018-12-22T16:34:52.679Z,21.20
2018-12-22T16:37:29.026Z,20.93
2018-12-22T16:40:02.196Z,18.27
2018-12-22T16:42:34.443Z,20.27
2018-12-22T16:45:10.731Z,19.63
2018-12-22T16:47:47.395Z,21.57
2018-12-22T16:50:20.133Z,20.00
2018-12-22T16:52:54.180Z,19.17
2018-12-22T16:55:27.999Z,19.90
2018-12-22T16:58:06.701Z,19.50
2018-12-22T17:00:50.768Z,19.77
2018-12-22T17:03:23.390Z,20.50
2018-12-22T17:16:03.172Z,21.00
2018-12-22T17:18:33.561Z,21.80
2018-12-22T17:21:33.925Z,22.90
2018-12-22T17:24:18.517Z,21.40
2018-12-22T17:26:50.659Z,19.00
2018-12-22T17:29:23.454Z,19.60
2018-12-22T17:31:57.248Z,17.90
2018-12-22T17:34:29.661Z,18.57
2018-12-22T17:37:02.616Z,18.87
2018-12-22T17:39:36.796Z,18.70
2018-12-22T17:42:10.209Z,17.77
2018-12-22T17:44:43.477Z,18.67
2018-12-22T17:47:16.203Z,19.07
2018-12-22T17:49:49.285Z,16.97
2018-12-22T17:52:22.051Z,17.90
2018-12-22T17:54:53.334Z,18.27
2018-12-22T17:57:26.733Z,11.73
2018-12-22T17:59:59.869Z,11.37
2018-12-22T18:02:36.069Z,6.57
2018-12-22T18:05:10.456Z,4.33
2018-12-22T18:07:43.182Z,3.70
2018-12-22T18:10:14.426Z,2.73
2018-12-22T18:12:47.702Z,2.33
2018-12-22T18:15:22.802Z,2.00
2018-12-22T18:17:55.043Z,2.10
2018-12-22T18:20:28.036Z,2.47
2018-12-22T18:23:01.249Z,2.70
2018-12-22T18:25:34.378Z,2.77
2018-12-22T18:28:06.661Z,2.60
2018-12-22T18:30:39.429Z,2.67
2018-12-22T18:33:11.819Z,2.17
2018-12-22T18:35:44.434Z,1.77
2018-12-22T18:38:17.158Z,2.37
2018-12-22T18:40:49.364Z,2.27
2018-12-22T18:43:22.360Z,2.23
2018-12-22T18:45:55.408Z,2.00
2018-12-22T18:48:32.335Z,2.97
2018-12-22T18:51:06.057Z,2.20
2018-12-22T18:53:39.905Z,2.10
2018-12-22T18:56:16.173Z,1.80
2018-12-22T18:58:54.143Z,2.57
2018-12-22T19:01:27.500Z,2.90
2018-12-22T19:04:04.697Z,2.00
2018-12-22T19:06:36.956Z,2.00
2018-12-22T19:09:15.675Z,2.00
2018-12-22T19:11:48.717Z,2.43
2018-12-22T19:14:25.008Z,3.40
2018-12-22T19:17:01.294Z,3.50
2018-12-22T19:19:34.499Z,2.13
2018-12-22T19:22:07.459Z,2.63
2018-12-22T19:24:38.602Z,2.80
2018-12-22T19:27:16.623Z,2.80
2018-12-22T19:29:48.843Z,1.60
2018-12-22T19:32:21.959Z,1.37
2018-12-22T19:34:55.481Z,1.53
2018-12-22T19:37:28.369Z,1.60
2018-12-22T19:40:02.320Z,1.87
2018-12-22T19:42:34.939Z,2.23
2018-12-22T19:45:08.747Z,3.10
2018-12-22T19:47:45.068Z,2.40
2018-12-22T19:50:18.666Z,1.93
2018-12-22T19:52:49.769Z,1.40
2018-12-22T19:55:22.827Z,1.30
2018-12-22T19:57:54.971Z,1.20
2018-12-22T20:00:29.179Z,1.53
2018-12-22T20:03:02.092Z,5.90
2018-12-22T20:05:34.299Z,4.77
2018-12-22T20:08:06.532Z,3.40
2018-12-22T20:10:38.716Z,1.60
2018-12-22T20:13:11.190Z,1.20
2018-12-22T20:15:44.305Z,1.13
2018-12-22T20:18:16.584Z,1.00
2018-12-22T20:20:49.974Z,1.10
2018-12-22T20:23:22.835Z,0.90
2018-12-22T20:25:55.351Z,0.80
2018-12-22T20:28:29.566Z,0.80
2018-12-22T20:31:05.781Z,0.90
2018-12-22T20:33:38.721Z,0.80
2018-12-22T20:36:16.076Z,0.70
2018-12-22T20:38:48.572Z,1.00
2018-12-22T20:41:19.560Z,1.37
2018-12-22T20:43:52.532Z,1.10
2018-12-22T20:46:22.699Z,3.83
2018-12-22T20:48:54.929Z,1.53
2018-12-22T20:51:32.868Z,1.10
2018-12-22T20:54:09.122Z,2.10
2018-12-22T20:56:42.423Z,4.67
2018-12-22T20:59:15.432Z,4.47
2018-12-22T21:01:51.742Z,5.83
2018-12-22T21:04:28.035Z,3.20
2018-12-22T21:07:01.045Z,2.63
2018-12-22T21:09:32.304Z,2.50
2018-12-22T21:12:05.047Z,2.23
2018-12-22T21:14:35.438Z,7.40
2018-12-22T21:17:06.550Z,13.07
2018-12-22T21:19:39.538Z,14.30
2018-12-22T21:22:13.478Z,11.77
2018-12-22T21:24:45.914Z,13.00
2018-12-22T21:27:23.174Z,13.57
2018-12-22T21:29:53.482Z,13.03
2018-12-22T21:32:30.941Z,13.07
2018-12-22T21:35:04.216Z,13.57
2018-12-22T21:37:37.168Z,13.43
2018-12-22T21:40:10.202Z,12.30
2018-12-22T21:42:43.498Z,12.80
2018-12-22T21:45:16.575Z,13.80
2018-12-22T21:47:49.661Z,14.00
2018-12-22T21:50:22.893Z,14.07
2018-12-22T21:52:56.192Z,13.43
2018-12-22T21:55:28.979Z,14.20
2018-12-22T21:58:01.976Z,13.43
2018-12-22T22:00:38.198Z,14.60
2018-12-22T22:03:15.149Z,12.20
2018-12-22T22:05:46.372Z,13.30
2018-12-22T22:08:22.827Z,13.73
2018-12-22T22:10:54.100Z,13.53
2018-12-22T22:13:27.385Z,13.50
2018-12-22T22:16:00.654Z,14.40
2018-12-22T22:18:31.560Z,13.60
2018-12-22T22:21:08.458Z,14.33
2018-12-22T22:23:41.024Z,14.90
2018-12-22T22:26:17.482Z,17.30
2018-12-22T22:28:50.685Z,18.37
2018-12-22T22:31:23.757Z,20.07
2018-12-22T22:33:56.781Z,19.20
2018-12-22T22:36:29.817Z,20.90
2018-12-22T22:39:04.309Z,17.50
2018-12-22T22:41:40.716Z,19.53
2018-12-22T22:44:13.744Z,19.57
2018-12-22T22:46:46.692Z,18.80
2018-12-22T22:49:20.026Z,21.70
2018-12-22T22:51:56.442Z,19.90
2018-12-22T22:54:28.667Z,19.57
2018-12-22T22:57:04.925Z,19.77
2018-12-22T22:59:41.480Z,19.00
2018-12-22T23:02:14.305Z,18.37
2018-12-22T23:04:54.428Z,19.20
2018-12-22T23:07:27.744Z,18.83
2018-12-22T23:10:00.385Z,18.43
2018-12-22T23:12:33.481Z,17.23
2018-12-22T23:15:11.665Z,17.53
2018-12-22T23:17:43.410Z,13.57
2018-12-22T23:20:16.021Z,8.43
2018-12-22T23:22:49.443Z,6.10
2018-12-22T23:25:27.120Z,4.97
2018-12-22T23:43:03.665Z,16.93
2018-12-22T23:45:36.180Z,16.43
2018-12-22T23:48:13.295Z,16.17
2018-12-22T23:50:46.427Z,15.97
2018-12-22T23:53:19.638Z,15.87
2018-12-22T23:55:52.833Z,16.03
2018-12-22T23:58:25.810Z,14.00
